createdAt,value
2023-05-21T00:02:00.288Z,1
2023-05-21T00:14:00.352Z,1
2023-05-21T00:26:00.268Z,1
2023-05-21T00:38:00.256Z,1
2023-05-21T00:50:00.260Z,1
2023-05-21T01:02:00.431Z,1
2023-05-21T01:14:00.313Z,1
2023-05-21T01:26:00.288Z,1
2023-05-21T01:38:00.220Z,1
2023-05-21T01:50:00.471Z,1
2023-05-21T02:02:00.420Z,1
2023-05-21T02:14:00.328Z,1
2023-05-21T02:26:00.255Z,1
2023-05-21T02:38:00.493Z,1
2023-05-21T02:50:00.453Z,1
2023-05-21T03:02:00.491Z,1
2023-05-21T03:14:00.340Z,1
2023-05-21T03:26:00.567Z,5
2023-05-21T03:38:00.465Z,15
2023-05-21T03:50:00.455Z,35
2023-05-21T04:02:00.441Z,54
2023-05-21T04:14:00.573Z,67
2023-05-21T04:26:00.496Z,80
2023-05-21T04:38:01.331Z,88
2023-05-21T04:50:00.409Z,91
2023-05-21T05:02:00.622Z,94
2023-05-21T05:14:00.574Z,94
2023-05-21T05:26:00.523Z,94
2023-05-21T05:38:00.643Z,94
2023-05-21T05:50:00.624Z,95
2023-05-21T06:02:00.585Z,95
2023-05-21T06:14:00.537Z,96
2023-05-21T06:26:00.683Z,96
2023-05-21T06:38:00.665Z,96
2023-05-21T06:50:00.590Z,97
2023-05-21T07:02:01.872Z,96
2023-05-21T07:14:00.689Z,96
2023-05-21T07:26:00.764Z,96
2023-05-21T07:38:00.675Z,96
2023-05-21T07:50:00.815Z,96
2023-05-21T08:02:00.762Z,96
2023-05-21T08:14:00.919Z,96
2023-05-21T08:26:00.637Z,96
2023-05-21T08:38:00.838Z,96
2023-05-21T08:50:00.817Z,97
2023-05-21T09:02:00.802Z,97
2023-05-21T09:14:00.670Z,97
2023-05-21T09:26:00.884Z,97
2023-05-21T09:38:00.834Z,97
2023-05-21T09:50:00.780Z,98
2023-05-21T10:02:00.993Z,98
2023-05-21T10:14:00.895Z,98
2023-05-21T10:26:00.822Z,98
2023-05-21T10:38:00.804Z,98
2023-05-21T10:50:00.938Z,98
2023-05-21T11:02:00.959Z,97
2023-05-21T11:14:00.856Z,97
2023-05-21T11:26:00.840Z,97
2023-05-21T11:38:00.987Z,97
2023-05-21T11:50:00.976Z,97
2023-05-21T12:02:00.904Z,97
2023-05-21T12:14:01.116Z,97
2023-05-21T12:26:01.026Z,97
2023-05-21T12:38:00.987Z,97
2023-05-21T12:50:00.903Z,97
2023-05-21T13:02:01.130Z,97
2023-05-21T13:14:01.021Z,97
2023-05-21T13:26:01.007Z,96
2023-05-21T13:38:00.947Z,96
2023-05-21T13:50:01.124Z,96
2023-05-21T14:02:01.140Z,96
2023-05-21T14:14:01.044Z,96
2023-05-21T14:26:01.167Z,96
2023-05-21T14:38:01.148Z,96
2023-05-21T14:50:01.077Z,96
2023-05-21T15:02:01.149Z,96
2023-05-21T15:14:01.191Z,96
2023-05-21T15:26:01.176Z,96
2023-05-21T15:38:01.144Z,96
2023-05-21T15:50:01.126Z,96
2023-05-21T16:02:01.314Z,96
2023-05-21T16:14:01.755Z,95
2023-05-21T16:26:01.199Z,95
2023-05-21T16:38:01.162Z,95
2023-05-21T16:50:01.324Z,95
2023-05-21T17:02:01.445Z,95
2023-05-21T17:14:01.213Z,95
2023-05-21T17:26:01.226Z,95
2023-05-21T17:38:01.342Z,95
2023-05-21T17:50:01.325Z,95
2023-05-21T18:02:01.271Z,94
2023-05-21T18:14:01.422Z,94
2023-05-21T18:26:01.362Z,94
2023-05-21T18:38:01.351Z,93
2023-05-21T18:50:01.274Z,93
2023-05-21T19:02:01.540Z,91
2023-05-21T19:14:01.376Z,90
2023-05-21T19:26:01.384Z,88
2023-05-21T19:38:03.350Z,85
2023-05-21T19:50:01.506Z,80
2023-05-21T20:02:01.489Z,72
2023-05-21T20:14:01.431Z,60
2023-05-21T20:26:01.368Z,41
2023-05-21T20:38:01.533Z,20
2023-05-21T20:50:01.469Z,7
2023-05-21T21:02:01.579Z,2
2023-05-21T21:14:01.583Z,1
2023-05-21T21:26:01.659Z,1
2023-05-21T21:38:01.508Z,1
2023-05-21T21:50:01.501Z,1
2023-05-21T22:02:01.678Z,1
2023-05-21T22:14:01.609Z,1
2023-05-21T22:26:01.547Z,1
2023-05-21T22:38:01.562Z,1
2023-05-21T22:50:01.684Z,1
2023-05-21T23:02:01.660Z,1
2023-05-21T23:14:01.603Z,1
2023-05-21T23:26:01.569Z,1
2023-05-21T23:38:01.734Z,1
2023-05-21T23:50:01.670Z,1
